createdAt,value
2022-12-25T00:03:43.320Z,7.21
2022-12-25T00:09:24.556Z,7.15
2022-12-25T00:14:27.763Z,7.17
2022-12-25T00:19:29.622Z,7.14
2022-12-25T00:24:31.670Z,7.14
2022-12-25T00:29:37.000Z,7.11
2022-12-25T00:34:39.434Z,7.16
2022-12-25T00:39:41.372Z,7.20
2022-12-25T00:44:44.141Z,7.30
2022-12-25T00:49:46.273Z,7.27
2022-12-25T00:54:48.305Z,7.26
2022-12-25T00:59:52.207Z,7.32
2022-12-25T01:04:57.108Z,7.33
2022-12-25T01:10:17.520Z,7.36
2022-12-25T01:15:19.442Z,7.39
2022-12-25T01:20:21.299Z,7.45
2022-12-25T01:25:23.171Z,7.44
2022-12-25T01:30:25.065Z,7.45
2022-12-25T01:35:26.995Z,7.44
2022-12-25T01:40:28.889Z,7.43
2022-12-25T01:45:40.760Z,7.41
2022-12-25T01:50:46.639Z,7.40
2022-12-25T01:55:51.241Z,7.43
2022-12-25T02:00:53.823Z,7.41
2022-12-25T02:05:56.440Z,7.41
2022-12-25T02:10:58.370Z,7.37
2022-12-25T02:16:12.656Z,7.39
2022-12-25T02:21:26.600Z,7.37
2022-12-25T02:26:49.795Z,7.38
2022-12-25T02:32:02.657Z,7.36
2022-12-25T02:37:27.472Z,7.38
2022-12-25T02:43:00.039Z,7.37
2022-12-25T02:48:21.089Z,7.40
2022-12-25T02:53:41.895Z,7.47
2022-12-25T02:59:04.921Z,7.46
2022-12-25T03:04:32.445Z,7.46
2022-12-25T03:10:00.680Z,7.48
2022-12-25T03:15:21.649Z,7.50
2022-12-25T03:20:44.283Z,7.56
2022-12-25T03:26:24.479Z,7.59
2022-12-25T03:31:40.000Z,7.62
2022-12-25T03:37:27.466Z,7.60
2022-12-25T03:42:58.883Z,7.60
2022-12-25T03:48:24.399Z,7.60
2022-12-25T03:54:12.903Z,7.65
2022-12-25T03:59:38.737Z,7.71
2022-12-25T04:04:59.260Z,7.71
2022-12-25T04:10:19.659Z,7.71
2022-12-25T04:15:40.412Z,7.72
2022-12-25T04:21:00.747Z,7.76
2022-12-25T04:26:21.473Z,7.80
2022-12-25T04:31:41.999Z,7.74
2022-12-25T04:36:44.167Z,7.77
2022-12-25T04:41:46.087Z,7.75
2022-12-25T04:46:48.140Z,7.80
2022-12-25T04:51:50.256Z,7.80
2022-12-25T04:56:52.007Z,7.82
2022-12-25T05:01:54.017Z,7.84
2022-12-25T05:06:56.434Z,7.84
2022-12-25T05:11:58.226Z,7.87
2022-12-25T05:17:00.136Z,7.90
2022-12-25T05:22:02.088Z,7.94
2022-12-25T05:27:03.899Z,7.93
2022-12-25T05:32:05.853Z,7.94
2022-12-25T05:37:07.908Z,7.93
2022-12-25T05:42:09.940Z,7.93
2022-12-25T05:47:11.920Z,7.93
2022-12-25T05:52:13.783Z,7.93
2022-12-25T05:57:15.876Z,7.92
2022-12-25T06:02:18.833Z,7.94
2022-12-25T06:07:20.783Z,7.95
2022-12-25T06:12:22.650Z,7.97
2022-12-25T06:17:27.603Z,8.01
2022-12-25T06:22:31.607Z,7.91
2022-12-25T06:27:33.599Z,7.94
2022-12-25T06:32:35.533Z,7.98
2022-12-25T06:37:37.946Z,7.87
2022-12-25T06:42:40.069Z,7.84
2022-12-25T06:47:41.958Z,7.79
2022-12-25T06:52:43.951Z,7.79
2022-12-25T06:57:46.014Z,7.76
2022-12-25T07:02:49.531Z,7.78
2022-12-25T07:07:51.334Z,7.78
2022-12-25T07:12:53.381Z,7.79
2022-12-25T07:17:55.249Z,7.80
2022-12-25T07:22:57.122Z,7.83
2022-12-25T07:27:58.938Z,7.81
2022-12-25T07:33:00.673Z,7.82
2022-12-25T07:38:02.612Z,7.84
2022-12-25T07:43:04.520Z,7.77
2022-12-25T07:48:10.564Z,7.78
2022-12-25T07:53:15.278Z,7.83
2022-12-25T07:58:21.426Z,7.84
2022-12-25T08:03:25.984Z,7.84
2022-12-25T08:08:28.404Z,7.92
2022-12-25T08:13:31.958Z,7.91
2022-12-25T08:18:33.868Z,7.90
2022-12-25T08:23:37.761Z,7.89
2022-12-25T08:28:40.277Z,7.89
2022-12-25T08:33:42.435Z,7.90
2022-12-25T08:38:45.010Z,7.93
2022-12-25T08:43:47.012Z,7.91
2022-12-25T08:48:50.070Z,7.94
2022-12-25T08:53:53.629Z,7.95
2022-12-25T08:58:55.507Z,7.97
2022-12-25T09:03:57.796Z,7.97
2022-12-25T09:08:59.786Z,8.00
2022-12-25T09:14:01.712Z,8.03
2022-12-25T09:19:03.686Z,8.04
2022-12-25T09:25:00.516Z,7.97
2022-12-25T09:30:40.343Z,7.93
2022-12-25T09:42:23.128Z,7.93
2022-12-25T09:47:34.533Z,7.95
2022-12-25T09:53:13.495Z,7.94
2022-12-25T09:58:16.070Z,7.98
2022-12-25T10:03:39.723Z,8.03
2022-12-25T10:09:00.642Z,8.02
2022-12-25T10:14:26.205Z,8.04
2022-12-25T10:19:36.948Z,8.08
2022-12-25T10:25:22.383Z,8.05
2022-12-25T10:30:27.986Z,8.13
2022-12-25T10:35:31.649Z,8.10
2022-12-25T10:47:45.849Z,8.06
2022-12-25T10:53:18.693Z,8.11
2022-12-25T10:58:35.959Z,8.06
2022-12-25T11:03:48.177Z,8.01
2022-12-25T11:08:56.970Z,8.02
2022-12-25T11:14:01.487Z,8.09
2022-12-25T11:19:21.529Z,8.07
2022-12-25T11:24:28.009Z,8.10
2022-12-25T11:29:42.747Z,8.08
2022-12-25T11:34:47.371Z,8.11
2022-12-25T11:39:49.003Z,8.14
2022-12-25T11:45:10.517Z,8.14
2022-12-25T12:03:05.012Z,8.25
2022-12-25T12:08:06.933Z,8.17
2022-12-25T12:13:17.646Z,8.11
2022-12-25T12:18:28.395Z,8.15
2022-12-25T12:23:33.286Z,8.18
2022-12-25T12:28:45.807Z,8.20
2022-12-25T12:33:57.704Z,8.14
2022-12-25T12:38:59.602Z,8.13
2022-12-25T12:44:04.931Z,8.10
2022-12-25T12:49:20.782Z,8.09
2022-12-25T12:54:25.404Z,8.10
2022-12-25T12:59:44.443Z,8.23
2022-12-25T13:04:53.712Z,8.08
2022-12-25T13:10:12.384Z,8.10
2022-12-25T13:15:14.782Z,8.07
2022-12-25T13:20:39.773Z,8.21
2022-12-25T13:25:41.427Z,8.14
2022-12-25T13:30:43.182Z,8.16
2022-12-25T13:35:45.332Z,8.13
2022-12-25T13:41:21.505Z,8.07
2022-12-25T13:46:27.030Z,8.05
2022-12-25T13:51:28.853Z,8.06
2022-12-25T13:56:31.366Z,8.06
2022-12-25T14:01:33.119Z,8.08
2022-12-25T14:06:34.861Z,8.12
2022-12-25T14:11:36.767Z,8.06
2022-12-25T14:16:43.614Z,8.07
2022-12-25T14:21:49.352Z,8.07
2022-12-25T14:26:57.755Z,8.02
2022-12-25T14:32:00.622Z,8.09
2022-12-25T14:37:03.990Z,8.08
2022-12-25T14:42:22.107Z,8.09
2022-12-25T14:47:23.836Z,8.11
2022-12-25T14:52:34.724Z,8.11
2022-12-25T14:57:47.226Z,8.09
2022-12-25T15:02:53.120Z,8.03
2022-12-25T15:08:00.825Z,8.04
2022-12-25T15:13:02.587Z,8.05
2022-12-25T15:18:04.781Z,8.02
2022-12-25T15:23:25.342Z,7.99
2022-12-25T15:28:26.996Z,8.01
2022-12-25T15:33:28.639Z,8.00
2022-12-25T15:38:36.439Z,7.98
2022-12-25T15:43:40.830Z,7.98
2022-12-25T15:48:43.064Z,8.08
2022-12-25T15:53:44.716Z,8.03
2022-12-25T15:58:46.353Z,8.11
2022-12-25T16:03:48.286Z,8.09
2022-12-25T16:08:50.305Z,8.02
2022-12-25T16:13:51.906Z,8.08
2022-12-25T16:18:53.548Z,8.14
2022-12-25T16:23:55.182Z,8.04
2022-12-25T16:28:56.781Z,8.00
2022-12-25T16:34:01.139Z,8.01
2022-12-25T16:39:04.124Z,8.04
2022-12-25T16:44:09.724Z,8.08
2022-12-25T16:49:11.315Z,8.04
2022-12-25T16:54:13.129Z,7.99
2022-12-25T16:59:14.703Z,7.96
2022-12-25T17:04:16.319Z,7.96
2022-12-25T17:09:17.934Z,7.91
2022-12-25T17:14:19.547Z,7.88
2022-12-25T17:19:23.703Z,7.89
2022-12-25T17:24:26.855Z,7.79
2022-12-25T17:29:28.543Z,7.80
2022-12-25T17:34:30.153Z,7.77
2022-12-25T17:39:31.871Z,7.82
2022-12-25T17:44:33.740Z,7.80
2022-12-25T17:49:37.903Z,7.81
2022-12-25T17:54:40.695Z,7.67
2022-12-25T17:59:42.418Z,7.70
2022-12-25T18:04:48.096Z,7.67
2022-12-25T18:09:49.669Z,7.73
2022-12-25T18:14:51.339Z,7.80
2022-12-25T18:19:53.121Z,7.85
2022-12-25T18:24:57.594Z,7.80
2022-12-25T18:29:59.221Z,7.77
2022-12-25T18:35:00.805Z,7.74
2022-12-25T18:40:03.575Z,7.60
2022-12-25T18:45:09.576Z,7.60
2022-12-25T18:50:13.894Z,7.65
2022-12-25T18:55:15.547Z,7.67
2022-12-25T19:00:17.474Z,7.63
2022-12-25T19:05:19.042Z,7.70
2022-12-25T19:10:20.794Z,7.70
2022-12-25T19:15:22.381Z,7.74
2022-12-25T19:20:24.100Z,7.71
2022-12-25T19:25:25.765Z,7.72
2022-12-25T19:30:27.605Z,7.70
2022-12-25T19:35:29.280Z,7.76
2022-12-25T19:40:30.936Z,7.82
2022-12-25T19:45:33.163Z,7.80
2022-12-25T19:50:35.056Z,7.79
2022-12-25T19:55:36.652Z,7.79
2022-12-25T20:00:38.461Z,7.73
2022-12-25T20:05:40.095Z,7.77
2022-12-25T20:10:48.232Z,7.76
2022-12-25T20:15:50.249Z,7.81
2022-12-25T20:20:59.781Z,7.78
2022-12-25T20:26:04.849Z,7.80
2022-12-25T20:31:14.712Z,7.80
2022-12-25T20:36:16.452Z,7.78
2022-12-25T20:41:27.420Z,7.80
2022-12-25T20:46:30.234Z,7.84
2022-12-25T20:51:31.919Z,7.86
2022-12-25T20:56:33.891Z,7.82
2022-12-25T21:01:35.583Z,7.82
2022-12-25T21:06:37.225Z,7.87
2022-12-25T21:11:38.816Z,7.85
2022-12-25T21:16:40.491Z,7.85
2022-12-25T21:21:43.611Z,7.81
2022-12-25T21:26:48.215Z,7.82
2022-12-25T21:32:09.707Z,7.86
2022-12-25T21:37:11.423Z,7.88
2022-12-25T21:42:13.019Z,7.89
2022-12-25T21:47:14.746Z,7.85
2022-12-25T21:52:16.484Z,7.84
2022-12-25T21:57:18.100Z,7.84
2022-12-25T22:02:19.876Z,7.81
2022-12-25T22:07:21.857Z,7.85
2022-12-25T22:12:42.349Z,7.82
2022-12-25T22:18:02.585Z,7.85
2022-12-25T22:23:04.676Z,7.88
2022-12-25T22:28:08.499Z,7.84
2022-12-25T22:33:10.337Z,7.85
2022-12-25T22:38:12.031Z,7.86
2022-12-25T22:43:13.692Z,7.85
2022-12-25T22:48:15.299Z,7.90
2022-12-25T22:53:16.888Z,7.91
2022-12-25T22:58:18.612Z,7.87
2022-12-25T23:03:20.256Z,7.88
2022-12-25T23:08:23.545Z,7.90
2022-12-25T23:13:57.205Z,7.81
2022-12-25T23:19:18.191Z,7.85
2022-12-25T23:24:38.254Z,7.87
2022-12-25T23:29:41.592Z,7.94
2022-12-25T23:34:45.124Z,7.95
2022-12-25T23:39:50.050Z,7.91
2022-12-25T23:44:51.682Z,7.93
2022-12-25T23:49:53.276Z,7.94
2022-12-25T23:54:54.905Z,7.93
2022-12-25T23:59:56.553Z,7.93
